Time,TemperatureF,DewpointF,PressureIn,WindDirection,WindDirectionDegrees,WindSpeedMPH,WindSpeedGustMPH,Humidity,HourlyPrecipIn,Conditions,Clouds,dailyrainin,SoftwareType,DateUTC
2013-10-20 00:10:00,51.8,51.5,29.71,North,0,0.0,-999.0,99,-99.99,,,0.00,Acu-Link.com,2013-10-20 04:10:00,
2013-10-20 00:26:00,51.8,51.5,29.70,North,0,0.0,-999.0,99,-99.99,,,0.00,Acu-Link.com,2013-10-20 04:26:00,
2013-10-20 00:41:00,51.8,51.5,29.70,North,0,0.0,-999.0,99,-99.99,,,0.00,Acu-Link.com,2013-10-20 04:41:00,
2013-10-20 00:56:00,51.8,51.5,29.71,North,0,0.0,-999.0,99,-99.99,,,0.00,Acu-Link.com,2013-10-20 04:56:00,
2013-10-20 01:11:00,51.8,51.5,29.71,NNE,22,0.0,-999.0,99,-99.99,,,0.00,Acu-Link.com,2013-10-20 05:11:00,
2013-10-20 01:26:00,51.8,51.5,29.71,NW,315,0.0,-999.0,99,-99.99,,,0.00,Acu-Link.com,2013-10-20 05:26:00,
2013-10-20 01:42:00,51.8,51.5,29.72,NW,315,0.0,-999.0,99,-99.99,,,0.00,Acu-Link.com,2013-10-20 05:42:00,
2013-10-20 01:57:00,51.8,51.5,29.72,NNW,337,0.0,-999.0,99,-99.99,,,0.00,Acu-Link.com,2013-10-20 05:57:00,
2013-10-20 02:12:00,51.8,51.5,29.73,WSW,247,0.0,-999.0,99,-99.99,,,0.00,Acu-Link.com,2013-10-20 06:12:00,
2013-10-20 02:27:00,50.0,49.7,29.73,SSE,157,0.0,-999.0,99,-99.99,,,0.00,Acu-Link.com,2013-10-20 06:27:00,
2013-10-20 02:42:00,50.0,49.7,29.74,NW,315,0.0,-999.0,99,-99.99,,,0.00,Acu-Link.com,2013-10-20 06:42:00,
2013-10-20 02:57:00,50.0,49.7,29.74,NNW,337,0.0,-999.0,99,-99.99,,,0.00,Acu-Link.com,2013-10-20 06:57:00,
2013-10-20 03:12:00,48.2,47.9,29.74,NNE,22,1.6,-999.0,99,-99.99,,,0.00,Acu-Link.com,2013-10-20 07:12:00,
2013-10-20 03:27:00,48.2,47.9,29.74,WSW,247,0.0,-999.0,99,-99.99,,,0.00,Acu-Link.com,2013-10-20 07:27:00,
2013-10-20 03:43:00,46.4,46.1,29.74,NNE,22,2.0,-999.0,99,-99.99,,,0.01,Acu-Link.com,2013-10-20 07:43:00,
2013-10-20 03:58:00,46.4,46.1,29.74,North,0,1.1,-999.0,99,-99.99,,,0.01,Acu-Link.com,2013-10-20 07:58:00,
2013-10-20 04:14:00,46.4,46.1,29.74,North,0,0.0,-999.0,99,-99.99,,,0.01,Acu-Link.com,2013-10-20 08:14:00,
2013-10-20 04:29:00,46.4,46.1,29.74,NNE,22,0.0,-999.0,99,-99.99,,,0.01,Acu-Link.com,2013-10-20 08:29:00,
2013-10-20 04:44:00,46.4,46.1,29.75,NNE,22,0.0,-999.0,99,-99.99,,,0.01,Acu-Link.com,2013-10-20 08:44:00,
2013-10-20 04:59:00,44.6,44.3,29.75,NNE,22,0.0,-999.0,99,-99.99,,,0.01,Acu-Link.com,2013-10-20 08:59:00,
2013-10-20 05:14:00,44.6,44.3,29.75,North,0,0.0,-999.0,99,-99.99,,,0.01,Acu-Link.com,2013-10-20 09:14:00,
2013-10-20 05:29:00,44.6,44.3,29.75,NNE,22,0.0,-999.0,99,-99.99,,,0.01,Acu-Link.com,2013-10-20 09:29:00,
2013-10-20 05:45:00,44.6,44.3,29.76,ESE,112,0.0,-999.0,99,-99.99,,,0.01,Acu-Link.com,2013-10-20 09:45:00,
2013-10-20 06:00:00,42.8,42.5,29.77,NNE,22,0.0,-999.0,99,-99.99,,,0.01,Acu-Link.com,2013-10-20 10:00:00,
2013-10-20 06:15:00,42.8,42.5,29.78,North,0,0.0,-999.0,99,-99.99,,,0.01,Acu-Link.com,2013-10-20 10:15:00,
2013-10-20 06:30:00,42.8,42.5,29.78,North,0,0.0,-999.0,99,-99.99,,,0.01,Acu-Link.com,2013-10-20 10:30:00,
2013-10-20 06:45:00,42.8,42.5,29.78,NNE,22,0.0,-999.0,99,-99.99,,,0.01,Acu-Link.com,2013-10-20 10:45:00,
2013-10-20 07:00:00,42.8,42.5,29.80,NNW,337,1.1,-999.0,99,-99.99,,,0.01,Acu-Link.com,2013-10-20 11:00:00,
2013-10-20 07:15:00,42.8,42.5,29.80,NNW,337,0.0,-999.0,99,-99.99,,,0.01,Acu-Link.com,2013-10-20 11:15:00,
2013-10-20 07:31:00,42.8,42.5,29.80,South,180,2.0,-999.0,99,-99.99,,,0.01,Acu-Link.com,2013-10-20 11:31:00,
2013-10-20 07:46:00,42.8,42.5,29.80,SSE,157,0.0,-999.0,99,-99.99,,,0.01,Acu-Link.com,2013-10-20 11:46:00,
2013-10-20 08:01:00,42.8,42.5,29.81,North,0,0.0,-999.0,99,-99.99,,,0.01,Acu-Link.com,2013-10-20 12:01:00,
2013-10-20 08:17:00,42.8,42.5,29.82,NNE,22,0.0,-999.0,99,-99.99,,,0.01,Acu-Link.com,2013-10-20 12:17:00,
2013-10-20 08:32:00,42.8,42.3,29.82,NNW,337,2.7,-999.0,98,-99.99,,,0.01,Acu-Link.com,2013-10-20 12:32:00,
2013-10-20 08:47:00,44.6,42.7,29.84,NE,45,1.6,-999.0,93,-99.99,,,0.01,Acu-Link.com,2013-10-20 12:47:00,
2013-10-20 09:02:00,50.0,43.7,29.84,ESE,112,2.0,-999.0,79,-99.99,,,0.01,Acu-Link.com,2013-10-20 13:02:00,
2013-10-20 09:18:00,48.2,41.0,29.85,ESE,112,3.1,-999.0,76,-99.99,,,0.01,Acu-Link.com,2013-10-20 13:18:00,
2013-10-20 09:33:00,51.8,40.8,29.85,ESE,112,2.0,-999.0,66,-99.99,,,0.01,Acu-Link.com,2013-10-20 13:33:00,
2013-10-20 09:48:00,51.8,39.6,29.86,NNE,22,2.7,-999.0,63,-99.99,,,0.01,Acu-Link.com,2013-10-20 13:48:00,
2013-10-20 10:03:00,53.6,40.5,29.86,NNE,22,2.0,-999.0,61,-99.99,,,0.01,Acu-Link.com,2013-10-20 14:03:00,
2013-10-20 10:18:00,53.6,38.7,29.87,West,270,3.6,-999.0,57,-99.99,,,0.01,Acu-Link.com,2013-10-20 14:18:00,
2013-10-20 10:34:00,53.6,38.7,29.87,SSE,157,3.1,-999.0,57,-99.99,,,0.01,Acu-Link.com,2013-10-20 14:34:00,
2013-10-20 10:49:00,55.4,39.0,29.88,SE,135,3.1,-999.0,54,-99.99,,,0.01,Acu-Link.com,2013-10-20 14:49:00,
2013-10-20 11:04:00,57.2,39.2,29.88,ESE,112,4.0,-999.0,51,-99.99,,,0.01,Acu-Link.com,2013-10-20 15:04:00,
2013-10-20 11:20:00,59.0,39.3,29.87,North,0,4.0,-999.0,48,-99.99,,,0.01,Acu-Link.com,2013-10-20 15:20:00,
2013-10-20 11:35:00,59.0,40.4,29.88,North,0,4.0,-999.0,50,-99.99,,,0.01,Acu-Link.com,2013-10-20 15:35:00,
2013-10-20 11:51:00,57.2,38.7,29.88,NNE,22,1.6,-999.0,50,-99.99,,,0.01,Acu-Link.com,2013-10-20 15:51:00,
2013-10-20 12:06:00,59.0,38.8,29.88,ESE,112,2.7,-999.0,47,-99.99,,,0.01,Acu-Link.com,2013-10-20 16:06:00,
2013-10-20 12:21:00,60.8,39.9,29.87,SSE,157,4.7,-999.0,46,-99.99,,,0.01,Acu-Link.com,2013-10-20 16:21:00,
2013-10-20 12:36:00,59.0,37.7,29.88,ESE,112,1.6,-999.0,45,-99.99,,,0.01,Acu-Link.com,2013-10-20 16:36:00,
2013-10-20 12:51:00,60.8,38.2,50.87,WNW,292,2.0,-999.0,43,-99.99,,,0.01,Acu-Link.com,2013-10-20 16:51:00,
2013-10-20 13:07:00,62.6,39.2,29.86,SE,135,4.7,-999.0,42,-99.99,,,0.01,Acu-Link.com,2013-10-20 17:07:00,
2013-10-20 13:22:00,62.6,38.6,29.85,South,180,1.6,-999.0,41,-99.99,,,0.01,Acu-Link.com,2013-10-20 17:22:00,
2013-10-20 13:37:00,62.6,39.2,29.85,South,180,2.7,-999.0,42,-99.99,,,0.01,Acu-Link.com,2013-10-20 17:37:00,
2013-10-20 13:52:00,62.6,37.9,29.84,South,180,3.1,-999.0,40,-99.99,,,0.01,Acu-Link.com,2013-10-20 17:52:00,
2013-10-20 14:07:00,64.4,38.2,29.83,East,90,1.6,-999.0,38,-99.99,,,0.01,Acu-Link.com,2013-10-20 18:07:00,
2013-10-20 14:22:00,64.4,38.2,29.83,SSW,202,3.6,-999.0,38,-99.99,,,0.01,Acu-Link.com,2013-10-20 18:22:00,
2013-10-20 14:38:00,66.2,39.8,29.82,East,90,2.7,-999.0,38,-99.99,,,0.01,Acu-Link.com,2013-10-20 18:38:00,
2013-10-20 14:53:00,66.2,37.7,29.82,NNW,337,2.0,-999.0,35,-99.99,,,0.01,Acu-Link.com,2013-10-20 18:53:00,
2013-10-20 15:08:00,64.4,40.2,29.82,SSE,157,4.7,-999.0,41,-99.99,,,0.01,Acu-Link.com,2013-10-20 19:08:00,
2013-10-20 15:23:00,64.4,38.9,29.82,SW,225,3.6,-999.0,39,-99.99,,,0.01,Acu-Link.com,2013-10-20 19:23:00,
2013-10-20 15:38:00,64.4,39.6,29.81,SSE,157,1.6,-999.0,40,-99.99,,,0.01,Acu-Link.com,2013-10-20 19:38:00,
2013-10-20 15:54:00,62.6,39.2,29.81,WNW,292,2.0,-999.0,42,-99.99,,,0.01,Acu-Link.com,2013-10-20 19:54:00,
2013-10-20 16:09:00,68.0,40.0,29.82,West,270,2.0,-999.0,36,-99.99,,,0.01,Acu-Link.com,2013-10-20 20:09:00,
2013-10-20 16:24:00,64.4,36.9,29.82,ESE,112,1.6,-999.0,36,-99.99,,,0.01,Acu-Link.com,2013-10-20 20:24:00,
2013-10-20 16:39:00,64.4,38.9,29.82,West,270,1.6,-999.0,39,-99.99,,,0.01,Acu-Link.com,2013-10-20 20:39:00,
2013-10-20 16:54:00,62.6,37.9,29.82,ESE,112,0.0,-999.0,40,-99.99,,,0.01,Acu-Link.com,2013-10-20 20:54:00,
2013-10-20 17:10:00,62.6,40.4,29.82,WNW,292,0.0,-999.0,44,-99.99,,,0.01,Acu-Link.com,2013-10-20 21:10:00,
2013-10-20 17:25:00,60.8,40.4,29.82,WNW,292,0.0,-999.0,47,-99.99,,,0.01,Acu-Link.com,2013-10-20 21:25:00,
2013-10-20 17:40:00,59.0,41.4,29.82,NNE,22,2.0,-999.0,52,-99.99,,,0.01,Acu-Link.com,2013-10-20 21:40:00,
2013-10-20 17:55:00,59.0,42.9,29.82,East,90,0.0,-999.0,55,-99.99,,,0.01,Acu-Link.com,2013-10-20 21:55:00,
2013-10-20 18:10:00,57.2,42.6,29.82,NNE,22,0.0,-999.0,58,-99.99,,,0.01,Acu-Link.com,2013-10-20 22:10:00,
2013-10-20 18:25:00,55.4,42.2,29.82,NNE,22,0.0,-999.0,61,-99.99,,,0.01,Acu-Link.com,2013-10-20 22:25:00,
2013-10-20 18:40:00,53.6,42.5,29.83,NE,45,0.0,-999.0,66,-99.99,,,0.01,Acu-Link.com,2013-10-20 22:40:00,
2013-10-20 18:56:00,51.8,42.7,29.83,NE,45,0.0,-999.0,71,-99.99,,,0.01,Acu-Link.com,2013-10-20 22:56:00,
2013-10-20 19:11:00,51.8,44.1,29.84,NE,45,0.0,-999.0,75,-99.99,,,0.01,Acu-Link.com,2013-10-20 23:11:00,
2013-10-20 19:26:00,50.0,42.7,29.84,NE,45,0.0,-999.0,76,-99.99,,,0.01,Acu-Link.com,2013-10-20 23:26:00,
2013-10-20 19:41:00,50.0,43.7,29.84,East,90,0.0,-999.0,79,-99.99,,,0.01,Acu-Link.com,2013-10-20 23:41:00,
2013-10-20 19:56:00,48.2,43.6,29.85,NE,45,0.0,-999.0,84,-99.99,,,0.01,Acu-Link.com,2013-10-20 23:56:00,
2013-10-20 20:12:00,46.4,42.4,29.85,NE,45,0.0,-999.0,86,-99.99,,,0.01,Acu-Link.com,2013-10-21 00:12:00,
2013-10-20 20:27:00,46.4,42.4,29.86,NE,45,0.0,-999.0,86,-99.99,,,0.01,Acu-Link.com,2013-10-21 00:27:00,
2013-10-20 20:42:00,46.4,43.0,29.86,NE,45,0.0,-999.0,88,-99.99,,,0.01,Acu-Link.com,2013-10-21 00:42:00,
2013-10-20 20:57:00,46.4,43.3,29.86,ESE,112,0.0,-999.0,89,-99.99,,,0.01,Acu-Link.com,2013-10-21 00:57:00,
2013-10-20 21:12:00,44.6,41.9,29.86,SSE,157,0.0,-999.0,90,-99.99,,,0.01,Acu-Link.com,2013-10-21 01:12:00,
2013-10-20 21:28:00,44.6,42.4,29.87,NW,315,0.0,-999.0,92,-99.99,,,0.01,Acu-Link.com,2013-10-21 01:28:00,
2013-10-20 21:43:00,44.6,42.4,29.87,NNE,22,0.0,-999.0,92,-99.99,,,0.01,Acu-Link.com,2013-10-21 01:43:00,
2013-10-20 21:58:00,44.6,42.4,29.88,ESE,112,0.0,-999.0,92,-99.99,,,0.01,Acu-Link.com,2013-10-21 01:58:00,
2013-10-20 22:14:00,44.6,42.7,29.88,WNW,292,0.0,-999.0,93,-99.99,,,0.01,Acu-Link.com,2013-10-21 02:14:00,
2013-10-20 22:29:00,44.6,42.7,29.88,WNW,292,0.0,-999.0,93,-99.99,,,0.01,Acu-Link.com,2013-10-21 02:29:00,
2013-10-20 22:44:00,44.6,43.5,29.88,West,270,0.0,-999.0,96,-99.99,,,0.01,Acu-Link.com,2013-10-21 02:44:00,
2013-10-20 22:59:00,44.6,43.8,29.88,ESE,112,0.0,-999.0,97,-99.99,,,0.01,Acu-Link.com,2013-10-21 02:59:00,
2013-10-20 23:14:00,42.8,41.7,29.88,ESE,112,0.0,-999.0,96,-99.99,,,0.01,Acu-Link.com,2013-10-21 03:14:00,
2013-10-20 23:30:00,42.8,42.0,29.88,ESE,112,0.0,-999.0,97,-99.99,,,0.01,Acu-Link.com,2013-10-21 03:30:00,
2013-10-20 23:45:00,42.8,42.0,29.89,ENE,67,0.0,-999.0,97,-99.99,,,0.01,Acu-Link.com,2013-10-21 03:45:00,